sensor_id;sensor_type;location;lat;lon;timestamp;P1;durP1;ratioP1;P2;durP2;ratioP2
37051;SDS011;22964;52.272;13.356;2023-02-28T00:00:33;5.82;;;2.80;;
37051;SDS011;22964;52.272;13.356;2023-02-28T00:03:00;5.88;;;3.17;;
37051;SDS011;22964;52.272;13.356;2023-02-28T00:05:26;5.22;;;2.70;;
37051;SDS011;22964;52.272;13.356;2023-02-28T00:07:53;4.07;;;2.55;;
37051;SDS011;22964;52.272;13.356;2023-02-28T00:10:23;5.00;;;2.80;;
37051;SDS011;22964;52.272;13.356;2023-02-28T00:12:52;7.32;;;2.60;;
37051;SDS011;22964;52.272;13.356;2023-02-28T00:15:19;5.05;;;2.70;;
37051;SDS011;22964;52.272;13.356;2023-02-28T00:17:46;7.05;;;3.03;;
37051;SDS011;22964;52.272;13.356;2023-02-28T00:20:12;6.03;;;3.40;;
37051;SDS011;22964;52.272;13.356;2023-02-28T00:22:39;5.80;;;3.65;;
37051;SDS011;22964;52.272;13.356;2023-02-28T00:25:10;5.90;;;3.40;;
37051;SDS011;22964;52.272;13.356;2023-02-28T00:27:38;7.05;;;3.90;;
37051;SDS011;22964;52.272;13.356;2023-02-28T00:30:05;5.55;;;3.20;;
37051;SDS011;22964;52.272;13.356;2023-02-28T00:32:34;4.78;;;3.08;;
37051;SDS011;22964;52.272;13.356;2023-02-28T00:35:00;4.32;;;2.80;;
37051;SDS011;22964;52.272;13.356;2023-02-28T00:37:26;5.53;;;3.20;;
37051;SDS011;22964;52.272;13.356;2023-02-28T00:39:52;5.05;;;3.00;;
37051;SDS011;22964;52.272;13.356;2023-02-28T00:42:17;5.38;;;2.88;;
37051;SDS011;22964;52.272;13.356;2023-02-28T00:44:43;3.88;;;2.70;;
37051;SDS011;22964;52.272;13.356;2023-02-28T00:47:10;5.60;;;2.83;;
37051;SDS011;22964;52.272;13.356;2023-02-28T00:49:36;4.30;;;2.70;;
37051;SDS011;22964;52.272;13.356;2023-02-28T00:52:01;5.65;;;3.00;;
37051;SDS011;22964;52.272;13.356;2023-02-28T00:54:27;4.28;;;2.75;;
37051;SDS011;22964;52.272;13.356;2023-02-28T00:56:53;5.10;;;3.00;;
37051;SDS011;22964;52.272;13.356;2023-02-28T00:59:19;7.07;;;3.58;;
37051;SDS011;22964;52.272;13.356;2023-02-28T01:01:45;5.68;;;3.25;;
37051;SDS011;22964;52.272;13.356;2023-02-28T01:04:11;5.13;;;3.08;;
37051;SDS011;22964;52.272;13.356;2023-02-28T01:06:37;4.85;;;2.75;;
37051;SDS011;22964;52.272;13.356;2023-02-28T01:09:04;5.72;;;3.40;;
37051;SDS011;22964;52.272;13.356;2023-02-28T01:11:31;5.57;;;3.20;;
37051;SDS011;22964;52.272;13.356;2023-02-28T01:13:58;5.95;;;3.30;;
37051;SDS011;22964;52.272;13.356;2023-02-28T01:16:24;6.85;;;3.50;;
37051;SDS011;22964;52.272;13.356;2023-02-28T01:18:49;6.38;;;3.25;;
37051;SDS011;22964;52.272;13.356;2023-02-28T01:21:17;5.32;;;3.13;;
37051;SDS011;22964;52.272;13.356;2023-02-28T01:23:44;5.32;;;3.22;;
37051;SDS011;22964;52.272;13.356;2023-02-28T01:26:14;7.38;;;3.53;;
37051;SDS011;22964;52.272;13.356;2023-02-28T01:28:47;6.50;;;3.75;;
37051;SDS011;22964;52.272;13.356;2023-02-28T01:31:14;9.05;;;4.20;;
37051;SDS011;22964;52.272;13.356;2023-02-28T01:33:40;6.57;;;3.70;;
37051;SDS011;22964;52.272;13.356;2023-02-28T01:36:09;7.97;;;4.18;;
37051;SDS011;22964;52.272;13.356;2023-02-28T01:38:35;6.68;;;4.00;;
37051;SDS011;22964;52.272;13.356;2023-02-28T01:41:01;6.20;;;3.65;;
37051;SDS011;22964;52.272;13.356;2023-02-28T01:43:28;7.88;;;3.53;;
37051;SDS011;22964;52.272;13.356;2023-02-28T01:45:56;6.65;;;3.70;;
37051;SDS011;22964;52.272;13.356;2023-02-28T01:48:25;7.18;;;3.55;;
37051;SDS011;22964;52.272;13.356;2023-02-28T01:50:54;6.13;;;3.10;;
37051;SDS011;22964;52.272;13.356;2023-02-28T01:53:29;6.43;;;3.45;;
37051;SDS011;22964;52.272;13.356;2023-02-28T01:55:57;5.20;;;2.95;;
37051;SDS011;22964;52.272;13.356;2023-02-28T01:58:23;5.53;;;3.08;;
37051;SDS011;22964;52.272;13.356;2023-02-28T02:00:49;5.90;;;3.10;;
37051;SDS011;22964;52.272;13.356;2023-02-28T02:03:16;7.28;;;3.38;;
37051;SDS011;22964;52.272;13.356;2023-02-28T02:05:45;7.25;;;3.45;;
37051;SDS011;22964;52.272;13.356;2023-02-28T02:08:19;6.30;;;3.65;;
37051;SDS011;22964;52.272;13.356;2023-02-28T02:13:36;5.47;;;3.22;;
37051;SDS011;22964;52.272;13.356;2023-02-28T02:41:39;6.70;;;3.90;;
37051;SDS011;22964;52.272;13.356;2023-02-28T02:46:38;8.43;;;4.25;;
37051;SDS011;22964;52.272;13.356;2023-02-28T02:49:10;7.15;;;3.90;;
37051;SDS011;22964;52.272;13.356;2023-02-28T02:51:40;6.97;;;3.80;;
37051;SDS011;22964;52.272;13.356;2023-02-28T02:54:15;7.43;;;3.55;;
37051;SDS011;22964;52.272;13.356;2023-02-28T02:56:45;7.15;;;3.88;;
37051;SDS011;22964;52.272;13.356;2023-02-28T02:59:13;6.57;;;3.85;;
37051;SDS011;22964;52.272;13.356;2023-02-28T03:01:51;7.78;;;3.83;;
37051;SDS011;22964;52.272;13.356;2023-02-28T03:04:23;8.45;;;3.83;;
37051;SDS011;22964;52.272;13.356;2023-02-28T03:06:51;7.82;;;4.10;;
37051;SDS011;22964;52.272;13.356;2023-02-28T03:09:21;6.85;;;3.78;;
37051;SDS011;22964;52.272;13.356;2023-02-28T03:11:47;7.95;;;4.00;;
37051;SDS011;22964;52.272;13.356;2023-02-28T03:14:25;9.63;;;4.30;;
37051;SDS011;22964;52.272;13.356;2023-02-28T03:25:08;7.88;;;3.95;;
37051;SDS011;22964;52.272;13.356;2023-02-28T03:30:56;7.17;;;3.73;;
37051;SDS011;22964;52.272;13.356;2023-02-28T03:33:26;6.35;;;3.90;;
37051;SDS011;22964;52.272;13.356;2023-02-28T03:36:30;7.97;;;3.40;;
37051;SDS011;22964;52.272;13.356;2023-02-28T03:39:37;7.53;;;3.72;;
37051;SDS011;22964;52.272;13.356;2023-02-28T03:42:11;7.43;;;3.72;;
37051;SDS011;22964;52.272;13.356;2023-02-28T03:44:45;7.68;;;4.22;;
37051;SDS011;22964;52.272;13.356;2023-02-28T03:47:15;6.28;;;3.78;;
37051;SDS011;22964;52.272;13.356;2023-02-28T03:49:53;6.40;;;3.83;;
37051;SDS011;22964;52.272;13.356;2023-02-28T03:52:33;8.52;;;3.47;;
37051;SDS011;22964;52.272;13.356;2023-02-28T03:55:05;5.50;;;3.30;;
37051;SDS011;22964;52.272;13.356;2023-02-28T04:00:25;6.72;;;3.30;;
37051;SDS011;22964;52.272;13.356;2023-02-28T04:02:56;8.13;;;3.90;;
37051;SDS011;22964;52.272;13.356;2023-02-28T04:05:22;8.07;;;4.03;;
37051;SDS011;22964;52.272;13.356;2023-02-28T04:07:48;7.28;;;3.75;;
37051;SDS011;22964;52.272;13.356;2023-02-28T04:10:15;7.43;;;3.50;;
37051;SDS011;22964;52.272;13.356;2023-02-28T04:12:41;7.90;;;3.95;;
37051;SDS011;22964;52.272;13.356;2023-02-28T04:15:07;7.68;;;4.03;;
37051;SDS011;22964;52.272;13.356;2023-02-28T04:17:33;6.05;;;3.45;;
37051;SDS011;22964;52.272;13.356;2023-02-28T04:19:59;7.47;;;3.75;;
37051;SDS011;22964;52.272;13.356;2023-02-28T04:22:24;7.78;;;4.03;;
37051;SDS011;22964;52.272;13.356;2023-02-28T04:24:53;8.75;;;4.57;;
37051;SDS011;22964;52.272;13.356;2023-02-28T04:27:19;7.10;;;3.72;;
37051;SDS011;22964;52.272;13.356;2023-02-28T04:29:45;8.35;;;3.78;;
37051;SDS011;22964;52.272;13.356;2023-02-28T04:32:11;7.85;;;4.28;;
37051;SDS011;22964;52.272;13.356;2023-02-28T04:34:37;7.00;;;3.95;;
37051;SDS011;22964;52.272;13.356;2023-02-28T04:37:03;9.65;;;4.18;;
37051;SDS011;22964;52.272;13.356;2023-02-28T04:39:29;8.25;;;4.63;;
37051;SDS011;22964;52.272;13.356;2023-02-28T04:41:55;7.78;;;4.40;;
37051;SDS011;22964;52.272;13.356;2023-02-28T04:44:21;8.70;;;4.60;;
37051;SDS011;22964;52.272;13.356;2023-02-28T04:46:47;6.53;;;4.00;;
37051;SDS011;22964;52.272;13.356;2023-02-28T04:49:14;7.25;;;4.10;;
37051;SDS011;22964;52.272;13.356;2023-02-28T04:51:40;7.93;;;3.88;;
37051;SDS011;22964;52.272;13.356;2023-02-28T04:54:06;8.10;;;3.75;;
37051;SDS011;22964;52.272;13.356;2023-02-28T04:56:32;8.23;;;3.90;;
37051;SDS011;22964;52.272;13.356;2023-02-28T04:58:58;7.35;;;3.80;;
37051;SDS011;22964;52.272;13.356;2023-02-28T05:01:25;7.00;;;3.78;;
37051;SDS011;22964;52.272;13.356;2023-02-28T05:03:52;6.45;;;3.72;;
37051;SDS011;22964;52.272;13.356;2023-02-28T05:06:20;6.20;;;3.78;;
37051;SDS011;22964;52.272;13.356;2023-02-28T05:08:48;7.10;;;3.45;;
37051;SDS011;22964;52.272;13.356;2023-02-28T05:13:40;6.07;;;3.83;;
37051;SDS011;22964;52.272;13.356;2023-02-28T05:16:06;7.55;;;4.53;;
37051;SDS011;22964;52.272;13.356;2023-02-28T05:18:32;8.32;;;4.43;;
37051;SDS011;22964;52.272;13.356;2023-02-28T05:20:57;6.53;;;3.88;;
37051;SDS011;22964;52.272;13.356;2023-02-28T05:23:26;8.18;;;4.28;;
37051;SDS011;22964;52.272;13.356;2023-02-28T05:25:53;8.52;;;4.20;;
37051;SDS011;22964;52.272;13.356;2023-02-28T05:28:19;7.38;;;4.25;;
37051;SDS011;22964;52.272;13.356;2023-02-28T05:30:45;7.75;;;4.18;;
37051;SDS011;22964;52.272;13.356;2023-02-28T05:33:11;8.48;;;4.40;;
37051;SDS011;22964;52.272;13.356;2023-02-28T05:35:40;8.30;;;4.53;;
37051;SDS011;22964;52.272;13.356;2023-02-28T05:38:10;8.18;;;4.20;;
37051;SDS011;22964;52.272;13.356;2023-02-28T05:40:37;7.90;;;4.13;;
37051;SDS011;22964;52.272;13.356;2023-02-28T05:43:04;7.40;;;4.20;;
37051;SDS011;22964;52.272;13.356;2023-02-28T05:45:30;10.15;;;4.70;;
37051;SDS011;22964;52.272;13.356;2023-02-28T05:47:56;7.22;;;4.13;;
37051;SDS011;22964;52.272;13.356;2023-02-28T05:50:22;9.30;;;4.53;;
37051;SDS011;22964;52.272;13.356;2023-02-28T05:52:50;7.82;;;4.50;;
37051;SDS011;22964;52.272;13.356;2023-02-28T05:55:17;9.27;;;4.03;;
37051;SDS011;22964;52.272;13.356;2023-02-28T05:57:43;7.10;;;3.63;;
37051;SDS011;22964;52.272;13.356;2023-02-28T06:00:10;8.90;;;4.93;;
37051;SDS011;22964;52.272;13.356;2023-02-28T06:02:39;8.52;;;4.30;;
37051;SDS011;22964;52.272;13.356;2023-02-28T06:05:13;8.02;;;4.57;;
37051;SDS011;22964;52.272;13.356;2023-02-28T06:07:40;10.68;;;4.93;;
37051;SDS011;22964;52.272;13.356;2023-02-28T06:10:06;8.52;;;4.50;;
37051;SDS011;22964;52.272;13.356;2023-02-28T06:12:32;8.75;;;5.00;;
37051;SDS011;22964;52.272;13.356;2023-02-28T06:14:58;8.00;;;4.60;;
37051;SDS011;22964;52.272;13.356;2023-02-28T06:17:24;8.48;;;4.70;;
37051;SDS011;22964;52.272;13.356;2023-02-28T06:19:49;8.13;;;4.22;;
37051;SDS011;22964;52.272;13.356;2023-02-28T06:22:15;7.28;;;4.15;;
37051;SDS011;22964;52.272;13.356;2023-02-28T06:24:41;7.55;;;4.30;;
37051;SDS011;22964;52.272;13.356;2023-02-28T06:27:06;8.25;;;4.88;;
37051;SDS011;22964;52.272;13.356;2023-02-28T06:29:33;7.10;;;4.00;;
37051;SDS011;22964;52.272;13.356;2023-02-28T06:32:00;8.18;;;3.70;;
37051;SDS011;22964;52.272;13.356;2023-02-28T06:34:25;8.05;;;4.65;;
37051;SDS011;22964;52.272;13.356;2023-02-28T06:36:51;16.60;;;7.60;;
37051;SDS011;22964;52.272;13.356;2023-02-28T06:39:17;9.20;;;4.78;;
37051;SDS011;22964;52.272;13.356;2023-02-28T06:41:43;7.38;;;3.88;;
37051;SDS011;22964;52.272;13.356;2023-02-28T06:44:15;8.30;;;3.80;;
37051;SDS011;22964;52.272;13.356;2023-02-28T06:46:42;8.93;;;4.20;;
37051;SDS011;22964;52.272;13.356;2023-02-28T06:49:09;7.43;;;3.85;;
37051;SDS011;22964;52.272;13.356;2023-02-28T06:51:37;9.68;;;4.47;;
37051;SDS011;22964;52.272;13.356;2023-02-28T06:54:04;8.18;;;4.00;;
37051;SDS011;22964;52.272;13.356;2023-02-28T06:56:34;6.82;;;4.18;;
37051;SDS011;22964;52.272;13.356;2023-02-28T06:58:59;7.47;;;4.20;;
37051;SDS011;22964;52.272;13.356;2023-02-28T07:01:25;8.38;;;4.75;;
37051;SDS011;22964;52.272;13.356;2023-02-28T07:03:53;8.68;;;4.38;;
37051;SDS011;22964;52.272;13.356;2023-02-28T07:06:20;7.75;;;4.18;;
37051;SDS011;22964;52.272;13.356;2023-02-28T07:08:48;6.95;;;3.97;;
37051;SDS011;22964;52.272;13.356;2023-02-28T07:11:14;8.48;;;4.32;;
37051;SDS011;22964;52.272;13.356;2023-02-28T07:13:40;7.50;;;4.10;;
37051;SDS011;22964;52.272;13.356;2023-02-28T07:16:06;8.40;;;4.65;;
37051;SDS011;22964;52.272;13.356;2023-02-28T07:18:34;7.90;;;4.10;;
37051;SDS011;22964;52.272;13.356;2023-02-28T07:21:07;8.10;;;4.15;;
37051;SDS011;22964;52.272;13.356;2023-02-28T07:23:34;7.55;;;4.03;;
37051;SDS011;22964;52.272;13.356;2023-02-28T07:26:01;8.02;;;3.95;;
37051;SDS011;22964;52.272;13.356;2023-02-28T07:28:27;7.97;;;4.32;;
37051;SDS011;22964;52.272;13.356;2023-02-28T07:30:52;6.35;;;3.90;;
37051;SDS011;22964;52.272;13.356;2023-02-28T07:33:18;7.28;;;3.92;;
37051;SDS011;22964;52.272;13.356;2023-02-28T07:35:44;8.32;;;4.07;;
37051;SDS011;22964;52.272;13.356;2023-02-28T07:38:10;7.18;;;4.25;;
37051;SDS011;22964;52.272;13.356;2023-02-28T07:40:36;7.53;;;4.05;;
37051;SDS011;22964;52.272;13.356;2023-02-28T07:43:02;8.90;;;4.32;;
37051;SDS011;22964;52.272;13.356;2023-02-28T07:45:28;7.72;;;3.83;;
37051;SDS011;22964;52.272;13.356;2023-02-28T07:47:56;7.22;;;3.80;;
37051;SDS011;22964;52.272;13.356;2023-02-28T07:50:22;6.75;;;4.05;;
37051;SDS011;22964;52.272;13.356;2023-02-28T07:52:48;6.15;;;3.90;;
37051;SDS011;22964;52.272;13.356;2023-02-28T07:55:14;7.38;;;3.55;;
37051;SDS011;22964;52.272;13.356;2023-02-28T07:57:41;7.82;;;3.58;;
37051;SDS011;22964;52.272;13.356;2023-02-28T08:00:08;6.35;;;3.45;;
37051;SDS011;22964;52.272;13.356;2023-02-28T08:02:39;7.78;;;3.72;;
37051;SDS011;22964;52.272;13.356;2023-02-28T08:05:05;7.05;;;3.60;;
37051;SDS011;22964;52.272;13.356;2023-02-28T08:07:31;8.65;;;3.70;;
37051;SDS011;22964;52.272;13.356;2023-02-28T08:09:58;6.68;;;3.60;;
37051;SDS011;22964;52.272;13.356;2023-02-28T08:12:24;7.22;;;3.50;;
37051;SDS011;22964;52.272;13.356;2023-02-28T08:14:50;8.00;;;3.70;;
37051;SDS011;22964;52.272;13.356;2023-02-28T08:17:16;6.53;;;3.78;;
37051;SDS011;22964;52.272;13.356;2023-02-28T08:19:42;8.55;;;3.80;;
37051;SDS011;22964;52.272;13.356;2023-02-28T08:22:10;10.27;;;3.80;;
37051;SDS011;22964;52.272;13.356;2023-02-28T08:24:36;7.68;;;3.53;;
37051;SDS011;22964;52.272;13.356;2023-02-28T08:27:02;6.00;;;3.40;;
37051;SDS011;22964;52.272;13.356;2023-02-28T08:29:27;8.52;;;3.28;;
37051;SDS011;22964;52.272;13.356;2023-02-28T08:31:55;6.25;;;3.63;;
37051;SDS011;22964;52.272;13.356;2023-02-28T08:34:21;10.30;;;3.50;;
37051;SDS011;22964;52.272;13.356;2023-02-28T08:36:46;9.60;;;3.95;;
37051;SDS011;22964;52.272;13.356;2023-02-28T08:39:12;8.18;;;3.80;;
37051;SDS011;22964;52.272;13.356;2023-02-28T08:41:38;7.28;;;3.55;;
37051;SDS011;22964;52.272;13.356;2023-02-28T08:44:04;6.53;;;4.10;;
37051;SDS011;22964;52.272;13.356;2023-02-28T08:46:29;8.35;;;3.92;;
37051;SDS011;22964;52.272;13.356;2023-02-28T08:48:56;8.45;;;3.60;;
37051;SDS011;22964;52.272;13.356;2023-02-28T08:51:26;8.25;;;3.80;;
37051;SDS011;22964;52.272;13.356;2023-02-28T08:53:53;9.13;;;3.88;;
37051;SDS011;22964;52.272;13.356;2023-02-28T08:56:20;6.03;;;3.67;;
37051;SDS011;22964;52.272;13.356;2023-02-28T08:58:47;9.63;;;3.63;;
37051;SDS011;22964;52.272;13.356;2023-02-28T09:03:44;6.68;;;3.60;;
37051;SDS011;22964;52.272;13.356;2023-02-28T09:06:13;12.57;;;3.30;;
37051;SDS011;22964;52.272;13.356;2023-02-28T09:08:39;9.10;;;3.13;;
37051;SDS011;22964;52.272;13.356;2023-02-28T09:11:05;6.47;;;3.20;;
37051;SDS011;22964;52.272;13.356;2023-02-28T09:13:31;7.95;;;3.75;;
37051;SDS011;22964;52.272;13.356;2023-02-28T09:15:59;7.93;;;3.67;;
37051;SDS011;22964;52.272;13.356;2023-02-28T09:18:26;6.63;;;3.35;;
37051;SDS011;22964;52.272;13.356;2023-02-28T09:20:52;6.53;;;3.10;;
37051;SDS011;22964;52.272;13.356;2023-02-28T09:23:18;5.57;;;3.10;;
37051;SDS011;22964;52.272;13.356;2023-02-28T09:25:48;5.93;;;3.60;;
37051;SDS011;22964;52.272;13.356;2023-02-28T09:28:18;7.43;;;3.20;;
37051;SDS011;22964;52.272;13.356;2023-02-28T09:30:45;4.05;;;2.55;;
37051;SDS011;22964;52.272;13.356;2023-02-28T09:33:12;6.78;;;3.13;;
37051;SDS011;22964;52.272;13.356;2023-02-28T09:35:38;7.88;;;3.10;;
37051;SDS011;22964;52.272;13.356;2023-02-28T09:38:04;6.85;;;3.20;;
37051;SDS011;22964;52.272;13.356;2023-02-28T09:40:30;7.65;;;3.00;;
37051;SDS011;22964;52.272;13.356;2023-02-28T09:42:57;9.55;;;4.10;;
37051;SDS011;22964;52.272;13.356;2023-02-28T09:45:35;9.30;;;2.83;;
37051;SDS011;22964;52.272;13.356;2023-02-28T09:48:03;9.02;;;2.95;;
37051;SDS011;22964;52.272;13.356;2023-02-28T09:50:38;5.50;;;2.40;;
37051;SDS011;22964;52.272;13.356;2023-02-28T09:53:25;4.50;;;2.40;;
37051;SDS011;22964;52.272;13.356;2023-02-28T09:55:59;4.57;;;2.30;;
37051;SDS011;22964;52.272;13.356;2023-02-28T10:01:18;4.53;;;2.10;;
37051;SDS011;22964;52.272;13.356;2023-02-28T10:04:16;6.03;;;2.40;;
37051;SDS011;22964;52.272;13.356;2023-02-28T10:06:54;3.95;;;2.17;;
37051;SDS011;22964;52.272;13.356;2023-02-28T10:09:27;6.35;;;1.95;;
37051;SDS011;22964;52.272;13.356;2023-02-28T10:12:00;3.53;;;2.00;;
37051;SDS011;22964;52.272;13.356;2023-02-28T10:14:32;3.65;;;2.25;;
37051;SDS011;22964;52.272;13.356;2023-02-28T10:17:01;4.57;;;2.00;;
37051;SDS011;22964;52.272;13.356;2023-02-28T10:19:33;4.75;;;2.40;;
37051;SDS011;22964;52.272;13.356;2023-02-28T10:22:14;4.93;;;2.20;;
37051;SDS011;22964;52.272;13.356;2023-02-28T10:24:45;5.13;;;2.13;;
37051;SDS011;22964;52.272;13.356;2023-02-28T10:27:17;5.13;;;2.00;;
37051;SDS011;22964;52.272;13.356;2023-02-28T10:29:47;5.95;;;2.25;;
37051;SDS011;22964;52.272;13.356;2023-02-28T10:32:19;5.35;;;2.13;;
37051;SDS011;22964;52.272;13.356;2023-02-28T10:34:51;4.18;;;2.08;;
37051;SDS011;22964;52.272;13.356;2023-02-28T10:37:24;3.17;;;1.98;;
37051;SDS011;22964;52.272;13.356;2023-02-28T10:39:50;2.90;;;1.80;;
37051;SDS011;22964;52.272;13.356;2023-02-28T10:42:28;3.83;;;1.88;;
37051;SDS011;22964;52.272;13.356;2023-02-28T10:48:04;3.22;;;1.70;;
37051;SDS011;22964;52.272;13.356;2023-02-28T10:58:44;4.13;;;1.73;;
37051;SDS011;22964;52.272;13.356;2023-02-28T11:01:36;7.18;;;1.63;;
37051;SDS011;22964;52.272;13.356;2023-02-28T11:04:04;4.40;;;1.77;;
37051;SDS011;22964;52.272;13.356;2023-02-28T11:06:47;5.57;;;2.10;;
37051;SDS011;22964;52.272;13.356;2023-02-28T11:09:35;3.42;;;2.05;;
37051;SDS011;22964;52.272;13.356;2023-02-28T11:12:04;3.25;;;1.73;;
37051;SDS011;22964;52.272;13.356;2023-02-28T11:14:49;4.43;;;2.10;;
37051;SDS011;22964;52.272;13.356;2023-02-28T11:17:19;3.60;;;1.70;;
37051;SDS011;22964;52.272;13.356;2023-02-28T11:19:49;2.92;;;1.70;;
37051;SDS011;22964;52.272;13.356;2023-02-28T11:22:19;3.33;;;1.70;;
37051;SDS011;22964;52.272;13.356;2023-02-28T11:24:49;4.88;;;1.60;;
37051;SDS011;22964;52.272;13.356;2023-02-28T11:29:55;5.55;;;1.70;;
37051;SDS011;22964;52.272;13.356;2023-02-28T11:32:22;4.13;;;1.90;;
37051;SDS011;22964;52.272;13.356;2023-02-28T11:37:37;3.97;;;1.95;;
37051;SDS011;22964;52.272;13.356;2023-02-28T11:40:17;3.78;;;2.10;;
37051;SDS011;22964;52.272;13.356;2023-02-28T11:45:45;3.47;;;2.00;;
37051;SDS011;22964;52.272;13.356;2023-02-28T11:53:43;3.55;;;2.10;;
37051;SDS011;22964;52.272;13.356;2023-02-28T11:56:30;3.72;;;2.20;;
37051;SDS011;22964;52.272;13.356;2023-02-28T12:04:13;3.25;;;1.95;;
37051;SDS011;22964;52.272;13.356;2023-02-28T12:07:02;4.45;;;2.30;;
37051;SDS011;22964;52.272;13.356;2023-02-28T12:09:57;3.53;;;2.10;;
37051;SDS011;22964;52.272;13.356;2023-02-28T12:15:48;4.43;;;2.00;;
37051;SDS011;22964;52.272;13.356;2023-02-28T12:18:38;3.70;;;2.00;;
37051;SDS011;22964;52.272;13.356;2023-02-28T12:21:19;3.75;;;2.00;;
37051;SDS011;22964;52.272;13.356;2023-02-28T12:24:14;3.00;;;1.80;;
37051;SDS011;22964;52.272;13.356;2023-02-28T12:27:03;3.42;;;2.08;;
37051;SDS011;22964;52.272;13.356;2023-02-28T12:29:52;4.50;;;2.05;;
37051;SDS011;22964;52.272;13.356;2023-02-28T12:32:23;4.00;;;1.80;;
37051;SDS011;22964;52.272;13.356;2023-02-28T12:35:14;2.97;;;1.80;;
37051;SDS011;22964;52.272;13.356;2023-02-28T12:37:50;3.38;;;1.75;;
37051;SDS011;22964;52.272;13.356;2023-02-28T12:40:25;4.35;;;1.80;;
37051;SDS011;22964;52.272;13.356;2023-02-28T12:43:07;3.45;;;1.73;;
37051;SDS011;22964;52.272;13.356;2023-02-28T12:45:40;3.17;;;1.90;;
37051;SDS011;22964;52.272;13.356;2023-02-28T12:48:14;3.90;;;1.90;;
37051;SDS011;22964;52.272;13.356;2023-02-28T12:50:44;4.00;;;2.22;;
37051;SDS011;22964;52.272;13.356;2023-02-28T12:56:19;3.08;;;1.77;;
37051;SDS011;22964;52.272;13.356;2023-02-28T12:58:51;3.38;;;1.73;;
37051;SDS011;22964;52.272;13.356;2023-02-28T13:04:14;3.85;;;1.95;;
37051;SDS011;22964;52.272;13.356;2023-02-28T13:09:51;5.13;;;2.05;;
37051;SDS011;22964;52.272;13.356;2023-02-28T13:12:19;4.55;;;1.98;;
37051;SDS011;22964;52.272;13.356;2023-02-28T13:14:45;2.75;;;1.80;;
37051;SDS011;22964;52.272;13.356;2023-02-28T13:17:12;4.22;;;1.92;;
37051;SDS011;22964;52.272;13.356;2023-02-28T13:22:20;3.28;;;2.05;;
37051;SDS011;22964;52.272;13.356;2023-02-28T13:25:02;2.70;;;1.90;;
37051;SDS011;22964;52.272;13.356;2023-02-28T13:27:49;2.70;;;1.80;;
37051;SDS011;22964;52.272;13.356;2023-02-28T13:33:30;3.38;;;1.95;;
37051;SDS011;22964;52.272;13.356;2023-02-28T13:36:08;3.70;;;1.90;;
37051;SDS011;22964;52.272;13.356;2023-02-28T13:42:10;3.55;;;1.80;;
37051;SDS011;22964;52.272;13.356;2023-02-28T13:49:25;3.53;;;1.95;;
37051;SDS011;22964;52.272;13.356;2023-02-28T14:06:50;4.25;;;2.15;;
37051;SDS011;22964;52.272;13.356;2023-02-28T14:09:21;9.00;;;2.20;;
37051;SDS011;22964;52.272;13.356;2023-02-28T14:11:50;3.53;;;2.00;;
37051;SDS011;22964;52.272;13.356;2023-02-28T14:17:05;4.50;;;2.33;;
37051;SDS011;22964;52.272;13.356;2023-02-28T14:19:35;5.45;;;2.22;;
37051;SDS011;22964;52.272;13.356;2023-02-28T14:36:10;6.68;;;2.15;;
37051;SDS011;22964;52.272;13.356;2023-02-28T14:38:47;4.35;;;1.88;;
37051;SDS011;22964;52.272;13.356;2023-02-28T14:41:23;3.72;;;2.03;;
37051;SDS011;22964;52.272;13.356;2023-02-28T14:43:50;4.10;;;2.00;;
37051;SDS011;22964;52.272;13.356;2023-02-28T14:46:21;3.08;;;1.98;;
37051;SDS011;22964;52.272;13.356;2023-02-28T14:48:49;4.18;;;2.03;;
37051;SDS011;22964;52.272;13.356;2023-02-28T14:51:19;4.32;;;2.00;;
37051;SDS011;22964;52.272;13.356;2023-02-28T14:53:49;3.25;;;1.67;;
37051;SDS011;22964;52.272;13.356;2023-02-28T14:56:19;3.95;;;1.90;;
37051;SDS011;22964;52.272;13.356;2023-02-28T14:58:56;4.53;;;2.08;;
37051;SDS011;22964;52.272;13.356;2023-02-28T15:01:22;5.85;;;2.20;;
37051;SDS011;22964;52.272;13.356;2023-02-28T15:04:02;3.88;;;1.90;;
37051;SDS011;22964;52.272;13.356;2023-02-28T15:06:30;2.42;;;1.45;;
37051;SDS011;22964;52.272;13.356;2023-02-28T15:09:16;3.38;;;2.10;;
37051;SDS011;22964;52.272;13.356;2023-02-28T15:11:47;3.60;;;2.03;;
37051;SDS011;22964;52.272;13.356;2023-02-28T15:14:18;4.68;;;2.20;;
37051;SDS011;22964;52.272;13.356;2023-02-28T15:16:47;3.88;;;1.73;;
37051;SDS011;22964;52.272;13.356;2023-02-28T15:21:55;4.15;;;2.13;;
37051;SDS011;22964;52.272;13.356;2023-02-28T15:24:44;4.88;;;2.00;;
37051;SDS011;22964;52.272;13.356;2023-02-28T15:27:17;4.97;;;1.90;;
37051;SDS011;22964;52.272;13.356;2023-02-28T15:29:47;3.95;;;1.90;;
37051;SDS011;22964;52.272;13.356;2023-02-28T15:33:01;4.93;;;2.05;;
37051;SDS011;22964;52.272;13.356;2023-02-28T15:37:54;6.07;;;2.15;;
37051;SDS011;22964;52.272;13.356;2023-02-28T15:40:42;3.60;;;1.75;;
37051;SDS011;22964;52.272;13.356;2023-02-28T15:46:04;3.38;;;2.00;;
37051;SDS011;22964;52.272;13.356;2023-02-28T15:48:52;3.30;;;2.15;;
37051;SDS011;22964;52.272;13.356;2023-02-28T15:51:20;5.53;;;2.00;;
37051;SDS011;22964;52.272;13.356;2023-02-28T15:54:24;2.90;;;1.80;;
37051;SDS011;22964;52.272;13.356;2023-02-28T15:56:50;3.25;;;1.90;;
37051;SDS011;22964;52.272;13.356;2023-02-28T15:59:23;3.88;;;1.70;;
37051;SDS011;22964;52.272;13.356;2023-02-28T16:02:12;4.88;;;2.00;;
37051;SDS011;22964;52.272;13.356;2023-02-28T16:07:30;4.30;;;1.95;;
37051;SDS011;22964;52.272;13.356;2023-02-28T16:09:56;4.90;;;1.90;;
37051;SDS011;22964;52.272;13.356;2023-02-28T16:12:25;3.65;;;1.95;;
37051;SDS011;22964;52.272;13.356;2023-02-28T16:14:52;4.10;;;1.63;;
37051;SDS011;22964;52.272;13.356;2023-02-28T16:17:23;3.20;;;1.90;;
37051;SDS011;22964;52.272;13.356;2023-02-28T16:19:51;3.67;;;2.08;;
37051;SDS011;22964;52.272;13.356;2023-02-28T16:22:17;3.33;;;2.00;;
37051;SDS011;22964;52.272;13.356;2023-02-28T16:24:43;3.60;;;2.10;;
37051;SDS011;22964;52.272;13.356;2023-02-28T16:27:14;5.55;;;1.98;;
37051;SDS011;22964;52.272;13.356;2023-02-28T16:29:43;3.60;;;2.13;;
37051;SDS011;22964;52.272;13.356;2023-02-28T16:32:11;5.85;;;2.40;;
37051;SDS011;22964;52.272;13.356;2023-02-28T16:34:39;4.07;;;2.50;;
37051;SDS011;22964;52.272;13.356;2023-02-28T16:37:09;4.35;;;2.17;;
37051;SDS011;22964;52.272;13.356;2023-02-28T16:39:37;3.53;;;1.90;;
37051;SDS011;22964;52.272;13.356;2023-02-28T16:42:03;3.80;;;1.95;;
37051;SDS011;22964;52.272;13.356;2023-02-28T16:44:32;4.35;;;2.03;;
37051;SDS011;22964;52.272;13.356;2023-02-28T16:47:00;4.40;;;1.92;;
37051;SDS011;22964;52.272;13.356;2023-02-28T16:49:26;5.07;;;1.92;;
37051;SDS011;22964;52.272;13.356;2023-02-28T16:51:52;3.33;;;1.92;;
37051;SDS011;22964;52.272;13.356;2023-02-28T16:54:18;3.05;;;1.73;;
37051;SDS011;22964;52.272;13.356;2023-02-28T16:56:45;3.65;;;1.80;;
37051;SDS011;22964;52.272;13.356;2023-02-28T16:59:12;4.80;;;1.83;;
37051;SDS011;22964;52.272;13.356;2023-02-28T17:01:40;4.22;;;1.80;;
37051;SDS011;22964;52.272;13.356;2023-02-28T17:04:05;3.28;;;2.17;;
37051;SDS011;22964;52.272;13.356;2023-02-28T17:06:31;3.50;;;1.65;;
37051;SDS011;22964;52.272;13.356;2023-02-28T17:08:57;4.28;;;1.60;;
37051;SDS011;22964;52.272;13.356;2023-02-28T17:11:25;6.38;;;1.98;;
37051;SDS011;22964;52.272;13.356;2023-02-28T17:13:51;2.38;;;1.50;;
37051;SDS011;22964;52.272;13.356;2023-02-28T17:18:54;4.53;;;1.73;;
37051;SDS011;22964;52.272;13.356;2023-02-28T17:21:22;2.97;;;1.75;;
37051;SDS011;22964;52.272;13.356;2023-02-28T17:23:48;2.95;;;1.63;;